sensor_id;sensor_type;location;lat;lon;timestamp;P1;durP1;ratioP1;P2;durP2;ratioP2
44987;SDS011;35735;52.226;21.254;2024-03-02T00:02:56;34.65;;;23.58;;
44987;SDS011;35735;52.226;21.254;2024-03-02T00:08:38;32.23;;;21.80;;
44987;SDS011;35735;52.226;21.254;2024-03-02T00:14:20;32.20;;;22.83;;
44987;SDS011;35735;52.226;21.254;2024-03-02T00:20:02;34.22;;;24.23;;
44987;SDS011;35735;52.226;21.254;2024-03-02T00:25:48;34.70;;;24.85;;
44987;SDS011;35735;52.226;21.254;2024-03-02T00:31:34;34.42;;;23.87;;
44987;SDS011;35735;52.226;21.254;2024-03-02T00:37:16;34.55;;;24.55;;
44987;SDS011;35735;52.226;21.254;2024-03-02T00:42:58;33.35;;;23.23;;
44987;SDS011;35735;52.226;21.254;2024-03-02T00:48:44;34.53;;;24.23;;
44987;SDS011;35735;52.226;21.254;2024-03-02T00:54:36;30.17;;;21.90;;
44987;SDS011;35735;52.226;21.254;2024-03-02T01:00:18;30.13;;;21.90;;
44987;SDS011;35735;52.226;21.254;2024-03-02T01:06:01;33.15;;;22.50;;
44987;SDS011;35735;52.226;21.254;2024-03-02T01:11:42;31.48;;;21.35;;
44987;SDS011;35735;52.226;21.254;2024-03-02T01:17:24;30.33;;;21.42;;
44987;SDS011;35735;52.226;21.254;2024-03-02T01:23:06;30.17;;;22.37;;
44987;SDS011;35735;52.226;21.254;2024-03-02T01:28:48;30.62;;;22.35;;
44987;SDS011;35735;52.226;21.254;2024-03-02T01:34:30;31.23;;;21.02;;
44987;SDS011;35735;52.226;21.254;2024-03-02T01:40:11;31.20;;;20.33;;
44987;SDS011;35735;52.226;21.254;2024-03-02T01:45:53;29.83;;;21.05;;
44987;SDS011;35735;52.226;21.254;2024-03-02T01:51:35;27.35;;;20.15;;
44987;SDS011;35735;52.226;21.254;2024-03-02T01:57:17;29.12;;;20.35;;
44987;SDS011;35735;52.226;21.254;2024-03-02T02:02:59;27.80;;;20.35;;
44987;SDS011;35735;52.226;21.254;2024-03-02T02:08:41;24.60;;;19.23;;
44987;SDS011;35735;52.226;21.254;2024-03-02T02:14:23;26.92;;;18.83;;
44987;SDS011;35735;52.226;21.254;2024-03-02T02:20:05;25.12;;;18.75;;
44987;SDS011;35735;52.226;21.254;2024-03-02T02:25:47;26.70;;;19.05;;
44987;SDS011;35735;52.226;21.254;2024-03-02T02:31:38;24.58;;;18.20;;
44987;SDS011;35735;52.226;21.254;2024-03-02T02:37:21;25.27;;;19.20;;
44987;SDS011;35735;52.226;21.254;2024-03-02T02:43:03;27.92;;;18.95;;
44987;SDS011;35735;52.226;21.254;2024-03-02T02:48:45;28.05;;;18.08;;
44987;SDS011;35735;52.226;21.254;2024-03-02T02:54:27;25.70;;;18.43;;
44987;SDS011;35735;52.226;21.254;2024-03-02T03:00:12;28.93;;;19.60;;
44987;SDS011;35735;52.226;21.254;2024-03-02T03:05:55;27.23;;;19.33;;
44987;SDS011;35735;52.226;21.254;2024-03-02T03:11:37;28.27;;;19.00;;
44987;SDS011;35735;52.226;21.254;2024-03-02T03:17:20;28.73;;;20.33;;
44987;SDS011;35735;52.226;21.254;2024-03-02T03:23:03;29.33;;;20.50;;
44987;SDS011;35735;52.226;21.254;2024-03-02T03:28:44;29.12;;;20.95;;
44987;SDS011;35735;52.226;21.254;2024-03-02T03:34:26;24.70;;;17.85;;
44987;SDS011;35735;52.226;21.254;2024-03-02T03:40:08;28.75;;;21.02;;
44987;SDS011;35735;52.226;21.254;2024-03-02T03:45:50;30.90;;;22.08;;
44987;SDS011;35735;52.226;21.254;2024-03-02T03:51:32;28.42;;;20.60;;
44987;SDS011;35735;52.226;21.254;2024-03-02T03:57:15;29.30;;;21.08;;
44987;SDS011;35735;52.226;21.254;2024-03-02T04:02:57;29.12;;;21.15;;
44987;SDS011;35735;52.226;21.254;2024-03-02T04:08:38;29.20;;;20.85;;
44987;SDS011;35735;52.226;21.254;2024-03-02T04:14:20;28.42;;;21.15;;
44987;SDS011;35735;52.226;21.254;2024-03-02T04:20:02;28.02;;;20.05;;
44987;SDS011;35735;52.226;21.254;2024-03-02T04:25:44;25.92;;;18.17;;
44987;SDS011;35735;52.226;21.254;2024-03-02T04:31:26;26.98;;;19.67;;
44987;SDS011;35735;52.226;21.254;2024-03-02T04:37:08;28.87;;;21.05;;
44987;SDS011;35735;52.226;21.254;2024-03-02T04:42:52;28.23;;;20.10;;
44987;SDS011;35735;52.226;21.254;2024-03-02T04:48:34;27.33;;;19.33;;
44987;SDS011;35735;52.226;21.254;2024-03-02T04:54:15;28.00;;;19.27;;
44987;SDS011;35735;52.226;21.254;2024-03-02T04:59:57;29.63;;;19.53;;
44987;SDS011;35735;52.226;21.254;2024-03-02T05:05:39;27.45;;;18.90;;
44987;SDS011;35735;52.226;21.254;2024-03-02T05:11:21;26.77;;;19.90;;
44987;SDS011;35735;52.226;21.254;2024-03-02T05:17:03;25.02;;;16.77;;
44987;SDS011;35735;52.226;21.254;2024-03-02T05:22:45;30.25;;;20.77;;
44987;SDS011;35735;52.226;21.254;2024-03-02T05:28:27;29.90;;;21.08;;
44987;SDS011;35735;52.226;21.254;2024-03-02T05:34:08;31.05;;;21.12;;
44987;SDS011;35735;52.226;21.254;2024-03-02T05:39:50;30.20;;;20.75;;
44987;SDS011;35735;52.226;21.254;2024-03-02T05:45:32;31.25;;;19.60;;
44987;SDS011;35735;52.226;21.254;2024-03-02T05:51:14;29.30;;;19.50;;
44987;SDS011;35735;52.226;21.254;2024-03-02T05:56:56;27.20;;;18.83;;
44987;SDS011;35735;52.226;21.254;2024-03-02T06:02:41;25.42;;;18.77;;
44987;SDS011;35735;52.226;21.254;2024-03-02T06:08:22;27.00;;;18.40;;
44987;SDS011;35735;52.226;21.254;2024-03-02T06:14:04;26.02;;;17.37;;
44987;SDS011;35735;52.226;21.254;2024-03-02T06:19:48;24.75;;;17.83;;
44987;SDS011;35735;52.226;21.254;2024-03-02T06:25:30;28.40;;;19.12;;
44987;SDS011;35735;52.226;21.254;2024-03-02T06:31:12;29.77;;;19.50;;
44987;SDS011;35735;52.226;21.254;2024-03-02T06:36:54;29.63;;;20.75;;
44987;SDS011;35735;52.226;21.254;2024-03-02T06:42:36;34.20;;;19.92;;
44987;SDS011;35735;52.226;21.254;2024-03-02T06:48:18;28.30;;;19.10;;
44987;SDS011;35735;52.226;21.254;2024-03-02T06:54:00;28.07;;;18.57;;
44987;SDS011;35735;52.226;21.254;2024-03-02T06:59:42;25.77;;;17.17;;
44987;SDS011;35735;52.226;21.254;2024-03-02T07:05:24;29.90;;;17.85;;
44987;SDS011;35735;52.226;21.254;2024-03-02T07:11:06;28.80;;;17.62;;
44987;SDS011;35735;52.226;21.254;2024-03-02T07:16:48;28.77;;;18.35;;
44987;SDS011;35735;52.226;21.254;2024-03-02T07:22:29;25.17;;;17.58;;
44987;SDS011;35735;52.226;21.254;2024-03-02T07:28:11;29.73;;;19.03;;
44987;SDS011;35735;52.226;21.254;2024-03-02T07:33:53;30.20;;;19.57;;
44987;SDS011;35735;52.226;21.254;2024-03-02T07:39:35;30.17;;;18.00;;
44987;SDS011;35735;52.226;21.254;2024-03-02T07:45:17;27.80;;;18.02;;
44987;SDS011;35735;52.226;21.254;2024-03-02T07:50:58;28.83;;;18.45;;
44987;SDS011;35735;52.226;21.254;2024-03-02T07:56:40;30.45;;;18.52;;
44987;SDS011;35735;52.226;21.254;2024-03-02T08:02:22;27.40;;;17.77;;
44987;SDS011;35735;52.226;21.254;2024-03-02T08:08:04;29.95;;;18.77;;
44987;SDS011;35735;52.226;21.254;2024-03-02T08:13:47;35.47;;;20.98;;
44987;SDS011;35735;52.226;21.254;2024-03-02T08:19:29;33.45;;;20.77;;
44987;SDS011;35735;52.226;21.254;2024-03-02T08:25:11;31.40;;;18.90;;
44987;SDS011;35735;52.226;21.254;2024-03-02T08:30:53;34.70;;;21.75;;
44987;SDS011;35735;52.226;21.254;2024-03-02T08:36:35;30.83;;;18.92;;
44987;SDS011;35735;52.226;21.254;2024-03-02T08:42:17;34.50;;;19.77;;
44987;SDS011;35735;52.226;21.254;2024-03-02T08:47:59;31.30;;;19.35;;
44987;SDS011;35735;52.226;21.254;2024-03-02T08:53:40;31.37;;;19.90;;
44987;SDS011;35735;52.226;21.254;2024-03-02T08:59:22;33.53;;;19.67;;
44987;SDS011;35735;52.226;21.254;2024-03-02T09:05:04;32.03;;;19.73;;
44987;SDS011;35735;52.226;21.254;2024-03-02T09:10:47;33.63;;;19.37;;
44987;SDS011;35735;52.226;21.254;2024-03-02T09:16:29;29.98;;;19.40;;
44987;SDS011;35735;52.226;21.254;2024-03-02T09:22:10;30.60;;;18.97;;
44987;SDS011;35735;52.226;21.254;2024-03-02T09:27:52;35.13;;;20.87;;
44987;SDS011;35735;52.226;21.254;2024-03-02T09:33:34;30.88;;;19.80;;
44987;SDS011;35735;52.226;21.254;2024-03-02T09:39:16;34.20;;;21.17;;
44987;SDS011;35735;52.226;21.254;2024-03-02T09:44:58;33.72;;;19.98;;
44987;SDS011;35735;52.226;21.254;2024-03-02T09:50:40;33.95;;;20.37;;
44987;SDS011;35735;52.226;21.254;2024-03-02T09:56:21;30.73;;;20.60;;
44987;SDS011;35735;52.226;21.254;2024-03-02T10:02:03;28.70;;;18.03;;
44987;SDS011;35735;52.226;21.254;2024-03-02T10:07:52;28.00;;;19.00;;
44987;SDS011;35735;52.226;21.254;2024-03-02T10:13:43;35.70;;;20.40;;
44987;SDS011;35735;52.226;21.254;2024-03-02T10:19:25;31.55;;;21.23;;
44987;SDS011;35735;52.226;21.254;2024-03-02T10:25:07;34.93;;;21.80;;
44987;SDS011;35735;52.226;21.254;2024-03-02T10:30:49;31.70;;;21.42;;
44987;SDS011;35735;52.226;21.254;2024-03-02T10:36:32;33.58;;;22.48;;
44987;SDS011;35735;52.226;21.254;2024-03-02T10:42:15;34.83;;;22.45;;
44987;SDS011;35735;52.226;21.254;2024-03-02T10:47:58;29.20;;;20.17;;
44987;SDS011;35735;52.226;21.254;2024-03-02T10:53:43;38.38;;;24.37;;
44987;SDS011;35735;52.226;21.254;2024-03-02T10:59:28;35.67;;;25.42;;
44987;SDS011;35735;52.226;21.254;2024-03-02T11:05:16;37.50;;;26.27;;
44987;SDS011;35735;52.226;21.254;2024-03-02T11:11:12;42.77;;;27.30;;
44987;SDS011;35735;52.226;21.254;2024-03-02T11:16:57;41.30;;;25.90;;
44987;SDS011;35735;52.226;21.254;2024-03-02T11:22:40;40.22;;;27.02;;
44987;SDS011;35735;52.226;21.254;2024-03-02T11:28:34;43.15;;;27.45;;
44987;SDS011;35735;52.226;21.254;2024-03-02T11:34:17;39.53;;;26.40;;
44987;SDS011;35735;52.226;21.254;2024-03-02T11:40:10;38.43;;;25.80;;
44987;SDS011;35735;52.226;21.254;2024-03-02T11:45:59;39.17;;;25.88;;
44987;SDS011;35735;52.226;21.254;2024-03-02T11:51:50;42.58;;;25.50;;
44987;SDS011;35735;52.226;21.254;2024-03-02T11:57:42;38.65;;;26.70;;
44987;SDS011;35735;52.226;21.254;2024-03-02T12:03:24;39.20;;;27.48;;
44987;SDS011;35735;52.226;21.254;2024-03-02T12:09:08;38.17;;;26.30;;
44987;SDS011;35735;52.226;21.254;2024-03-02T12:14:51;44.17;;;29.67;;
44987;SDS011;35735;52.226;21.254;2024-03-02T12:20:34;37.58;;;25.75;;
44987;SDS011;35735;52.226;21.254;2024-03-02T12:26:16;40.97;;;27.33;;
44987;SDS011;35735;52.226;21.254;2024-03-02T12:31:58;37.15;;;26.80;;
44987;SDS011;35735;52.226;21.254;2024-03-02T12:37:44;35.20;;;24.37;;
44987;SDS011;35735;52.226;21.254;2024-03-02T12:43:30;44.90;;;26.67;;
44987;SDS011;35735;52.226;21.254;2024-03-02T12:49:13;38.28;;;26.70;;
44987;SDS011;35735;52.226;21.254;2024-03-02T12:54:56;38.53;;;26.80;;
44987;SDS011;35735;52.226;21.254;2024-03-02T13:00:38;31.48;;;23.77;;
44987;SDS011;35735;52.226;21.254;2024-03-02T13:06:20;35.63;;;25.60;;
44987;SDS011;35735;52.226;21.254;2024-03-02T13:12:03;37.28;;;25.15;;
44987;SDS011;35735;52.226;21.254;2024-03-02T13:17:45;35.97;;;24.10;;
44987;SDS011;35735;52.226;21.254;2024-03-02T13:23:27;35.05;;;25.10;;
44987;SDS011;35735;52.226;21.254;2024-03-02T13:29:09;39.25;;;26.87;;
44987;SDS011;35735;52.226;21.254;2024-03-02T13:34:51;36.58;;;26.95;;
44987;SDS011;35735;52.226;21.254;2024-03-02T13:40:33;34.23;;;25.37;;
44987;SDS011;35735;52.226;21.254;2024-03-02T13:46:14;36.97;;;25.60;;
44987;SDS011;35735;52.226;21.254;2024-03-02T13:51:59;37.80;;;25.60;;
44987;SDS011;35735;52.226;21.254;2024-03-02T13:57:42;38.13;;;26.60;;
44987;SDS011;35735;52.226;21.254;2024-03-02T14:03:24;40.25;;;27.10;;
44987;SDS011;35735;52.226;21.254;2024-03-02T14:09:06;37.35;;;26.23;;
44987;SDS011;35735;52.226;21.254;2024-03-02T14:14:47;39.58;;;27.83;;
44987;SDS011;35735;52.226;21.254;2024-03-02T14:20:29;38.63;;;24.90;;
44987;SDS011;35735;52.226;21.254;2024-03-02T14:26:11;36.97;;;25.73;;
44987;SDS011;35735;52.226;21.254;2024-03-02T14:31:53;39.55;;;26.10;;
44987;SDS011;35735;52.226;21.254;2024-03-02T14:37:35;44.00;;;27.42;;
44987;SDS011;35735;52.226;21.254;2024-03-02T14:43:17;35.43;;;25.00;;
44987;SDS011;35735;52.226;21.254;2024-03-02T14:48:59;39.37;;;24.60;;
44987;SDS011;35735;52.226;21.254;2024-03-02T14:54:41;43.22;;;26.80;;
44987;SDS011;35735;52.226;21.254;2024-03-02T15:00:23;38.78;;;25.42;;
44987;SDS011;35735;52.226;21.254;2024-03-02T15:06:05;44.03;;;26.75;;
44987;SDS011;35735;52.226;21.254;2024-03-02T15:11:47;40.83;;;28.25;;
44987;SDS011;35735;52.226;21.254;2024-03-02T15:17:29;39.88;;;26.87;;
44987;SDS011;35735;52.226;21.254;2024-03-02T15:23:11;39.43;;;26.53;;
44987;SDS011;35735;52.226;21.254;2024-03-02T15:28:53;36.22;;;26.50;;
44987;SDS011;35735;52.226;21.254;2024-03-02T15:34:34;40.83;;;27.97;;
44987;SDS011;35735;52.226;21.254;2024-03-02T15:40:16;38.37;;;27.23;;
44987;SDS011;35735;52.226;21.254;2024-03-02T15:45:58;41.80;;;28.65;;
44987;SDS011;35735;52.226;21.254;2024-03-02T15:51:40;36.70;;;27.27;;
44987;SDS011;35735;52.226;21.254;2024-03-02T15:57:22;40.23;;;28.53;;
44987;SDS011;35735;52.226;21.254;2024-03-02T16:03:04;42.35;;;30.02;;
44987;SDS011;35735;52.226;21.254;2024-03-02T16:08:46;40.78;;;29.10;;
44987;SDS011;35735;52.226;21.254;2024-03-02T16:14:28;44.38;;;29.02;;
44987;SDS011;35735;52.226;21.254;2024-03-02T16:20:10;46.65;;;32.97;;
44987;SDS011;35735;52.226;21.254;2024-03-02T16:25:52;48.45;;;31.10;;
44987;SDS011;35735;52.226;21.254;2024-03-02T16:31:34;38.80;;;28.20;;
44987;SDS011;35735;52.226;21.254;2024-03-02T16:37:16;52.47;;;36.30;;
44987;SDS011;35735;52.226;21.254;2024-03-02T16:42:58;46.28;;;30.20;;
44987;SDS011;35735;52.226;21.254;2024-03-02T16:48:40;44.13;;;31.50;;
44987;SDS011;35735;52.226;21.254;2024-03-02T16:54:21;44.90;;;31.17;;
44987;SDS011;35735;52.226;21.254;2024-03-02T17:00:04;47.42;;;30.92;;
44987;SDS011;35735;52.226;21.254;2024-03-02T17:05:47;46.83;;;30.67;;
44987;SDS011;35735;52.226;21.254;2024-03-02T17:11:29;43.97;;;27.98;;
44987;SDS011;35735;52.226;21.254;2024-03-02T17:17:10;44.60;;;29.40;;
44987;SDS011;35735;52.226;21.254;2024-03-02T17:22:52;36.67;;;25.20;;
44987;SDS011;35735;52.226;21.254;2024-03-02T17:28:34;37.75;;;25.30;;
44987;SDS011;35735;52.226;21.254;2024-03-02T17:34:16;39.20;;;26.23;;
44987;SDS011;35735;52.226;21.254;2024-03-02T17:39:58;38.72;;;24.65;;
44987;SDS011;35735;52.226;21.254;2024-03-02T17:45:40;39.75;;;23.87;;
44987;SDS011;35735;52.226;21.254;2024-03-02T17:51:22;42.20;;;25.98;;
44987;SDS011;35735;52.226;21.254;2024-03-02T17:57:04;40.23;;;26.43;;
44987;SDS011;35735;52.226;21.254;2024-03-02T18:02:46;35.80;;;25.83;;
44987;SDS011;35735;52.226;21.254;2024-03-02T18:08:28;40.30;;;25.88;;
44987;SDS011;35735;52.226;21.254;2024-03-02T18:14:10;37.47;;;23.87;;
44987;SDS011;35735;52.226;21.254;2024-03-02T18:19:52;37.65;;;24.37;;
44987;SDS011;35735;52.226;21.254;2024-03-02T18:25:34;37.08;;;22.92;;
44987;SDS011;35735;52.226;21.254;2024-03-02T18:31:16;35.40;;;24.13;;
44987;SDS011;35735;52.226;21.254;2024-03-02T18:36:58;37.30;;;23.08;;
44987;SDS011;35735;52.226;21.254;2024-03-02T18:42:40;38.83;;;23.42;;
44987;SDS011;35735;52.226;21.254;2024-03-02T18:48:21;34.00;;;24.25;;
44987;SDS011;35735;52.226;21.254;2024-03-02T18:54:03;36.42;;;22.83;;
44987;SDS011;35735;52.226;21.254;2024-03-02T18:59:45;34.70;;;23.20;;
44987;SDS011;35735;52.226;21.254;2024-03-02T19:05:27;40.08;;;25.12;;
44987;SDS011;35735;52.226;21.254;2024-03-02T19:11:12;35.35;;;24.25;;
44987;SDS011;35735;52.226;21.254;2024-03-02T19:16:55;48.30;;;28.83;;
44987;SDS011;35735;52.226;21.254;2024-03-02T19:22:36;43.28;;;28.38;;
44987;SDS011;35735;52.226;21.254;2024-03-02T19:28:18;45.73;;;28.60;;
44987;SDS011;35735;52.226;21.254;2024-03-02T19:34:00;46.00;;;27.20;;
44987;SDS011;35735;52.226;21.254;2024-03-02T19:39:42;44.85;;;27.10;;
44987;SDS011;35735;52.226;21.254;2024-03-02T19:45:24;36.67;;;23.92;;
44987;SDS011;35735;52.226;21.254;2024-03-02T19:51:06;39.60;;;26.03;;
44987;SDS011;35735;52.226;21.254;2024-03-02T19:56:47;39.20;;;23.95;;
44987;SDS011;35735;52.226;21.254;2024-03-02T20:02:29;39.77;;;26.20;;
44987;SDS011;35735;52.226;21.254;2024-03-02T20:08:11;37.83;;;26.43;;
44987;SDS011;35735;52.226;21.254;2024-03-02T20:13:53;41.17;;;23.48;;
44987;SDS011;35735;52.226;21.254;2024-03-02T20:19:38;37.58;;;23.73;;
44987;SDS011;35735;52.226;21.254;2024-03-02T20:25:20;39.27;;;22.30;;
44987;SDS011;35735;52.226;21.254;2024-03-02T20:31:02;32.92;;;21.95;;
44987;SDS011;35735;52.226;21.254;2024-03-02T20:36:44;39.78;;;22.55;;
44987;SDS011;35735;52.226;21.254;2024-03-02T20:42:26;39.05;;;24.60;;
44987;SDS011;35735;52.226;21.254;2024-03-02T20:48:07;41.00;;;24.00;;
44987;SDS011;35735;52.226;21.254;2024-03-02T20:53:49;37.63;;;24.60;;
44987;SDS011;35735;52.226;21.254;2024-03-02T20:59:34;41.67;;;26.10;;
44987;SDS011;35735;52.226;21.254;2024-03-02T21:05:16;41.03;;;26.17;;
44987;SDS011;35735;52.226;21.254;2024-03-02T21:10:58;39.07;;;24.60;;
44987;SDS011;35735;52.226;21.254;2024-03-02T21:16:40;36.92;;;23.30;;
44987;SDS011;35735;52.226;21.254;2024-03-02T21:22:21;37.27;;;22.93;;
44987;SDS011;35735;52.226;21.254;2024-03-02T21:28:03;35.20;;;22.43;;
44987;SDS011;35735;52.226;21.254;2024-03-02T21:33:45;49.95;;;30.83;;
44987;SDS011;35735;52.226;21.254;2024-03-02T21:39:27;36.13;;;22.65;;
44987;SDS011;35735;52.226;21.254;2024-03-02T21:45:09;32.33;;;21.48;;
44987;SDS011;35735;52.226;21.254;2024-03-02T21:50:52;30.97;;;21.63;;
44987;SDS011;35735;52.226;21.254;2024-03-02T21:56:33;27.10;;;18.98;;
44987;SDS011;35735;52.226;21.254;2024-03-02T22:02:15;31.20;;;21.20;;
44987;SDS011;35735;52.226;21.254;2024-03-02T22:07:57;33.28;;;20.30;;
44987;SDS011;35735;52.226;21.254;2024-03-02T22:13:39;29.77;;;19.62;;
44987;SDS011;35735;52.226;21.254;2024-03-02T22:19:21;28.02;;;19.70;;
44987;SDS011;35735;52.226;21.254;2024-03-02T22:25:03;30.33;;;19.35;;
44987;SDS011;35735;52.226;21.254;2024-03-02T22:30:45;30.58;;;19.83;;
44987;SDS011;35735;52.226;21.254;2024-03-02T22:36:27;31.42;;;20.48;;
44987;SDS011;35735;52.226;21.254;2024-03-02T22:42:09;30.60;;;19.62;;
44987;SDS011;35735;52.226;21.254;2024-03-02T22:47:51;29.20;;;19.45;;
44987;SDS011;35735;52.226;21.254;2024-03-02T22:53:33;33.28;;;20.17;;
44987;SDS011;35735;52.226;21.254;2024-03-02T22:59:15;31.80;;;19.90;;
44987;SDS011;35735;52.226;21.254;2024-03-02T23:04:56;27.60;;;18.27;;
44987;SDS011;35735;52.226;21.254;2024-03-02T23:10:38;30.12;;;18.33;;
44987;SDS011;35735;52.226;21.254;2024-03-02T23:16:20;27.90;;;17.35;;
44987;SDS011;35735;52.226;21.254;2024-03-02T23:22:02;30.35;;;18.30;;
44987;SDS011;35735;52.226;21.254;2024-03-02T23:27:44;30.00;;;18.25;;
44987;SDS011;35735;52.226;21.254;2024-03-02T23:33:26;26.10;;;17.25;;
44987;SDS011;35735;52.226;21.254;2024-03-02T23:39:08;25.52;;;16.58;;
44987;SDS011;35735;52.226;21.254;2024-03-02T23:44:50;31.50;;;16.60;;
44987;SDS011;35735;52.226;21.254;2024-03-02T23:50:32;24.20;;;16.52;;
44987;SDS011;35735;52.226;21.254;2024-03-02T23:56:14;26.47;;;16.30;;
